Airfield :
LOGIN :

Register | Disclaimer

   EN    FR    IT 

 










Legend :    VFR   Marginal VFR   IFR   Intensive IFR   Very Intensive IFR
Visi :
Ceiling :
>= 8 km
>= 3000ft
5 to 8 km
1000 to 3000 ft
1500m to 5 km
500 to 1000 ft
800 to 1500m
200 to 500 ft
< 800m
< 200 ft
Symbols :   Thunderstorms  Fog  Heavy snow  Heavy precipitations  Wind > 20 kt
SIGMETs :     Misc.  Thunderstorms  Icing  Turbulence  Mountain Waves  Volcanic Ashes






- Airport Elevation : 90 ft
- IATA code : NTE


LFRS - Nantes

CURRENT METAR :
  • 170530Z AUTO 16004KT 9999 3700 BKN004 BKN074 10/10 Q1009 BECMG SCT020 BKN040

EXPIRED METARs :
  • 170500Z AUTO 15004KT CAVOK 11/10 Q1010 TEMPO 3000 BR BKN003
  • 170430Z AUTO 16003KT CAVOK 11/11 Q1010 TEMPO 3000 BR BKN003
  • 170400Z AUTO 16003KT CAVOK 12/11 Q1010 TEMPO 3000 BR BKN003
  • 170330Z AUTO 16003KT CAVOK 12/11 Q1010 TEMPO 3000 BR BKN003
  • 170300Z AUTO 18003KT CAVOK 12/11 Q1010 TEMPO 3000 BR BKN003

TAF TAF LFRS
Valid from the 17 at 06:00 until the 18 at 12:00 UTC


170500Z 1706/1812 VRB03KT 9999 SCT020 BKN040
BECMG 1708/1710 22010KT
TEMPO 1710/1714 23016G26KT 3000 SHRA BKN012 SCT020CB
TEMPO 1714/1803 -SHRA SCT020TCU
TEMPO 1803/1806 23015G30KT 3000 SHRA BKN015TCU SCT030CB
PROB30
TEMPO 1803/1806 TSRA
PROB30
TEMPO 1809/1812 -SHRA
ATIS : +33 2 40 05 12 74



MET'MAP, your aeronautical weather chart ! - Copyright ORBIFLY December 2007 - Disclaimer

ORBIFLY MET'MAP TEAM :

Programming & Development : Alexandra Zaïnal
Concept & Development : Baudouin d'Aumeries
Co-Development & Prog : Marc-Olivier Méhu
Technical & hardware support : Manuel Goepfert

Contact : metmap@orbifly.com




SOURCES & CREDITS :

   NOAA